sensor_id;sensor_type;location;lat;lon;timestamp;P1;durP1;ratioP1;P2;durP2;ratioP2
64915;SDS011;51427;-27.442;153.014;2023-01-10T00:01:37;6.47;;;2.38;;
64915;SDS011;51427;-27.442;153.014;2023-01-10T00:04:05;4.68;;;2.58;;
64915;SDS011;51427;-27.442;153.014;2023-01-10T00:06:32;4.72;;;2.38;;
64915;SDS011;51427;-27.442;153.014;2023-01-10T00:09:00;6.18;;;2.22;;
64915;SDS011;51427;-27.442;153.014;2023-01-10T00:11:28;3.42;;;1.88;;
64915;SDS011;51427;-27.442;153.014;2023-01-10T00:14:13;3.22;;;2.00;;
64915;SDS011;51427;-27.442;153.014;2023-01-10T00:16:41;5.22;;;2.03;;
64915;SDS011;51427;-27.442;153.014;2023-01-10T00:19:08;7.03;;;2.25;;
64915;SDS011;51427;-27.442;153.014;2023-01-10T00:21:36;4.65;;;2.17;;
64915;SDS011;51427;-27.442;153.014;2023-01-10T00:24:05;2.78;;;2.08;;
64915;SDS011;51427;-27.442;153.014;2023-01-10T00:26:50;3.63;;;2.20;;
64915;SDS011;51427;-27.442;153.014;2023-01-10T00:29:19;8.43;;;2.83;;
64915;SDS011;51427;-27.442;153.014;2023-01-10T00:31:48;8.30;;;2.70;;
64915;SDS011;51427;-27.442;153.014;2023-01-10T00:34:16;4.88;;;2.47;;
64915;SDS011;51427;-27.442;153.014;2023-01-10T00:36:44;7.30;;;2.67;;
64915;SDS011;51427;-27.442;153.014;2023-01-10T00:39:13;6.40;;;2.72;;
64915;SDS011;51427;-27.442;153.014;2023-01-10T00:41:44;4.70;;;2.58;;
64915;SDS011;51427;-27.442;153.014;2023-01-10T00:44:30;3.60;;;2.20;;
64915;SDS011;51427;-27.442;153.014;2023-01-10T00:46:57;6.28;;;2.50;;
64915;SDS011;51427;-27.442;153.014;2023-01-10T00:49:25;3.85;;;2.50;;
64915;SDS011;51427;-27.442;153.014;2023-01-10T00:51:56;7.22;;;2.42;;
64915;SDS011;51427;-27.442;153.014;2023-01-10T00:54:24;4.45;;;2.63;;
64915;SDS011;51427;-27.442;153.014;2023-01-10T00:56:52;6.40;;;2.28;;
64915;SDS011;51427;-27.442;153.014;2023-01-10T00:59:20;4.85;;;3.05;;
64915;SDS011;51427;-27.442;153.014;2023-01-10T01:01:48;4.30;;;2.83;;
64915;SDS011;51427;-27.442;153.014;2023-01-10T01:04:17;5.10;;;2.60;;
64915;SDS011;51427;-27.442;153.014;2023-01-10T01:06:44;5.50;;;2.72;;
64915;SDS011;51427;-27.442;153.014;2023-01-10T01:09:13;5.50;;;2.50;;
64915;SDS011;51427;-27.442;153.014;2023-01-10T01:11:42;9.13;;;3.15;;
64915;SDS011;51427;-27.442;153.014;2023-01-10T01:14:09;5.03;;;3.00;;
64915;SDS011;51427;-27.442;153.014;2023-01-10T01:16:37;5.53;;;2.85;;
64915;SDS011;51427;-27.442;153.014;2023-01-10T01:19:05;7.13;;;2.97;;
64915;SDS011;51427;-27.442;153.014;2023-01-10T01:21:32;4.97;;;2.50;;
64915;SDS011;51427;-27.442;153.014;2023-01-10T01:24:00;7.75;;;3.08;;
64915;SDS011;51427;-27.442;153.014;2023-01-10T01:26:28;4.35;;;2.97;;
64915;SDS011;51427;-27.442;153.014;2023-01-10T01:28:55;4.55;;;2.63;;
64915;SDS011;51427;-27.442;153.014;2023-01-10T01:31:23;5.53;;;2.85;;
64915;SDS011;51427;-27.442;153.014;2023-01-10T01:33:50;4.07;;;2.75;;
64915;SDS011;51427;-27.442;153.014;2023-01-10T01:36:18;4.65;;;2.58;;
64915;SDS011;51427;-27.442;153.014;2023-01-10T01:38:46;7.20;;;2.63;;
64915;SDS011;51427;-27.442;153.014;2023-01-10T01:41:13;3.40;;;2.47;;
64915;SDS011;51427;-27.442;153.014;2023-01-10T01:44:00;7.65;;;2.70;;
64915;SDS011;51427;-27.442;153.014;2023-01-10T01:46:33;5.32;;;2.70;;
64915;SDS011;51427;-27.442;153.014;2023-01-10T01:49:03;5.40;;;2.45;;
64915;SDS011;51427;-27.442;153.014;2023-01-10T01:51:34;3.95;;;2.58;;
64915;SDS011;51427;-27.442;153.014;2023-01-10T01:54:05;5.75;;;2.38;;
64915;SDS011;51427;-27.442;153.014;2023-01-10T01:56:41;5.43;;;3.08;;
64915;SDS011;51427;-27.442;153.014;2023-01-10T01:59:21;7.55;;;2.90;;
64915;SDS011;51427;-27.442;153.014;2023-01-10T02:01:59;5.25;;;2.33;;
64915;SDS011;51427;-27.442;153.014;2023-01-10T02:07:12;4.88;;;2.40;;
64915;SDS011;51427;-27.442;153.014;2023-01-10T02:09:48;7.25;;;2.20;;
64915;SDS011;51427;-27.442;153.014;2023-01-10T02:12:16;2.55;;;1.90;;
64915;SDS011;51427;-27.442;153.014;2023-01-10T02:14:46;7.82;;;2.42;;
64915;SDS011;51427;-27.442;153.014;2023-01-10T02:17:15;9.05;;;2.60;;
64915;SDS011;51427;-27.442;153.014;2023-01-10T02:19:49;5.07;;;2.28;;
64915;SDS011;51427;-27.442;153.014;2023-01-10T02:22:31;5.13;;;2.13;;
64915;SDS011;51427;-27.442;153.014;2023-01-10T02:28:57;5.70;;;2.60;;
64915;SDS011;51427;-27.442;153.014;2023-01-10T02:39:49;6.63;;;2.40;;
64915;SDS011;51427;-27.442;153.014;2023-01-10T02:42:36;10.43;;;2.60;;
64915;SDS011;51427;-27.442;153.014;2023-01-10T02:47:40;7.22;;;2.15;;
64915;SDS011;51427;-27.442;153.014;2023-01-10T02:53:14;2.80;;;1.85;;
64915;SDS011;51427;-27.442;153.014;2023-01-10T03:01:52;4.82;;;2.00;;
64915;SDS011;51427;-27.442;153.014;2023-01-10T03:12:37;4.47;;;1.92;;
64915;SDS011;51427;-27.442;153.014;2023-01-10T03:15:09;6.20;;;1.70;;
64915;SDS011;51427;-27.442;153.014;2023-01-10T03:17:40;2.78;;;1.65;;
64915;SDS011;51427;-27.442;153.014;2023-01-10T03:20:11;3.22;;;1.50;;
64915;SDS011;51427;-27.442;153.014;2023-01-10T03:22:38;5.85;;;1.65;;
64915;SDS011;51427;-27.442;153.014;2023-01-10T03:25:07;4.90;;;1.92;;
64915;SDS011;51427;-27.442;153.014;2023-01-10T03:30:29;4.30;;;1.70;;
64915;SDS011;51427;-27.442;153.014;2023-01-10T03:33:17;5.97;;;1.58;;
64915;SDS011;51427;-27.442;153.014;2023-01-10T03:38:53;5.82;;;1.45;;
64915;SDS011;51427;-27.442;153.014;2023-01-10T03:44:11;8.50;;;1.95;;
64915;SDS011;51427;-27.442;153.014;2023-01-10T03:47:05;7.60;;;1.80;;
64915;SDS011;51427;-27.442;153.014;2023-01-10T03:49:37;4.60;;;1.40;;
64915;SDS011;51427;-27.442;153.014;2023-01-10T03:52:08;4.53;;;1.67;;
64915;SDS011;51427;-27.442;153.014;2023-01-10T03:54:40;3.72;;;1.63;;
64915;SDS011;51427;-27.442;153.014;2023-01-10T03:57:14;5.20;;;1.75;;
64915;SDS011;51427;-27.442;153.014;2023-01-10T04:02:12;4.55;;;1.45;;
64915;SDS011;51427;-27.442;153.014;2023-01-10T04:04:39;5.25;;;1.42;;
64915;SDS011;51427;-27.442;153.014;2023-01-10T04:07:06;4.32;;;1.75;;
64915;SDS011;51427;-27.442;153.014;2023-01-10T04:09:33;4.97;;;2.00;;
64915;SDS011;51427;-27.442;153.014;2023-01-10T04:12:01;5.97;;;1.75;;
64915;SDS011;51427;-27.442;153.014;2023-01-10T04:14:28;5.45;;;1.77;;
64915;SDS011;51427;-27.442;153.014;2023-01-10T04:16:57;5.65;;;1.85;;
64915;SDS011;51427;-27.442;153.014;2023-01-10T04:19:24;5.30;;;1.63;;
64915;SDS011;51427;-27.442;153.014;2023-01-10T04:21:51;2.83;;;1.30;;
64915;SDS011;51427;-27.442;153.014;2023-01-10T04:24:19;4.88;;;1.48;;
64915;SDS011;51427;-27.442;153.014;2023-01-10T04:26:46;3.85;;;1.48;;
64915;SDS011;51427;-27.442;153.014;2023-01-10T04:29:13;5.78;;;1.55;;
64915;SDS011;51427;-27.442;153.014;2023-01-10T04:31:41;5.75;;;1.65;;
64915;SDS011;51427;-27.442;153.014;2023-01-10T04:34:08;5.65;;;1.50;;
64915;SDS011;51427;-27.442;153.014;2023-01-10T04:36:35;5.72;;;1.80;;
64915;SDS011;51427;-27.442;153.014;2023-01-10T04:39:03;8.45;;;1.77;;
64915;SDS011;51427;-27.442;153.014;2023-01-10T04:41:30;6.35;;;1.83;;
64915;SDS011;51427;-27.442;153.014;2023-01-10T04:43:58;4.38;;;1.23;;
64915;SDS011;51427;-27.442;153.014;2023-01-10T04:46:25;4.88;;;1.23;;
64915;SDS011;51427;-27.442;153.014;2023-01-10T04:48:52;7.80;;;1.42;;
64915;SDS011;51427;-27.442;153.014;2023-01-10T04:51:20;3.08;;;1.20;;
64915;SDS011;51427;-27.442;153.014;2023-01-10T04:53:47;3.13;;;1.40;;
64915;SDS011;51427;-27.442;153.014;2023-01-10T04:56:16;2.75;;;1.42;;
64915;SDS011;51427;-27.442;153.014;2023-01-10T04:58:44;6.05;;;1.92;;
64915;SDS011;51427;-27.442;153.014;2023-01-10T05:01:13;4.93;;;1.63;;
64915;SDS011;51427;-27.442;153.014;2023-01-10T05:03:48;3.95;;;1.38;;
64915;SDS011;51427;-27.442;153.014;2023-01-10T05:06:17;4.60;;;1.55;;
64915;SDS011;51427;-27.442;153.014;2023-01-10T05:08:44;5.88;;;1.38;;
64915;SDS011;51427;-27.442;153.014;2023-01-10T05:11:12;5.93;;;1.55;;
64915;SDS011;51427;-27.442;153.014;2023-01-10T05:13:40;4.43;;;1.50;;
64915;SDS011;51427;-27.442;153.014;2023-01-10T05:16:07;4.25;;;1.30;;
64915;SDS011;51427;-27.442;153.014;2023-01-10T05:18:34;6.65;;;1.42;;
64915;SDS011;51427;-27.442;153.014;2023-01-10T05:21:06;3.88;;;1.48;;
64915;SDS011;51427;-27.442;153.014;2023-01-10T05:23:39;6.53;;;1.27;;
64915;SDS011;51427;-27.442;153.014;2023-01-10T05:26:08;2.60;;;1.10;;
64915;SDS011;51427;-27.442;153.014;2023-01-10T05:28:37;5.85;;;1.10;;
64915;SDS011;51427;-27.442;153.014;2023-01-10T05:31:05;2.45;;;1.15;;
64915;SDS011;51427;-27.442;153.014;2023-01-10T05:33:33;3.38;;;1.15;;
64915;SDS011;51427;-27.442;153.014;2023-01-10T05:36:01;3.15;;;1.10;;
64915;SDS011;51427;-27.442;153.014;2023-01-10T05:38:30;4.03;;;1.30;;
64915;SDS011;51427;-27.442;153.014;2023-01-10T05:40:58;4.32;;;0.80;;
64915;SDS011;51427;-27.442;153.014;2023-01-10T05:43:26;4.43;;;1.20;;
64915;SDS011;51427;-27.442;153.014;2023-01-10T05:45:54;4.22;;;0.90;;
64915;SDS011;51427;-27.442;153.014;2023-01-10T05:48:21;3.53;;;1.05;;
64915;SDS011;51427;-27.442;153.014;2023-01-10T05:50:49;3.40;;;1.33;;
64915;SDS011;51427;-27.442;153.014;2023-01-10T05:53:17;3.33;;;0.93;;
64915;SDS011;51427;-27.442;153.014;2023-01-10T05:55:58;2.33;;;1.00;;
64915;SDS011;51427;-27.442;153.014;2023-01-10T05:58:27;3.58;;;1.17;;
64915;SDS011;51427;-27.442;153.014;2023-01-10T06:00:55;4.80;;;0.88;;
64915;SDS011;51427;-27.442;153.014;2023-01-10T06:03:23;6.40;;;1.30;;
64915;SDS011;51427;-27.442;153.014;2023-01-10T06:05:52;3.85;;;1.00;;
64915;SDS011;51427;-27.442;153.014;2023-01-10T06:08:19;8.98;;;1.30;;
64915;SDS011;51427;-27.442;153.014;2023-01-10T06:10:47;3.67;;;0.95;;
64915;SDS011;51427;-27.442;153.014;2023-01-10T06:13:15;8.48;;;1.35;;
64915;SDS011;51427;-27.442;153.014;2023-01-10T06:15:42;5.35;;;1.83;;
64915;SDS011;51427;-27.442;153.014;2023-01-10T06:18:10;4.30;;;1.15;;
64915;SDS011;51427;-27.442;153.014;2023-01-10T06:20:37;4.43;;;1.83;;
64915;SDS011;51427;-27.442;153.014;2023-01-10T06:23:05;2.97;;;1.00;;
64915;SDS011;51427;-27.442;153.014;2023-01-10T06:25:33;3.22;;;1.02;;
64915;SDS011;51427;-27.442;153.014;2023-01-10T06:28:10;5.22;;;1.63;;
64915;SDS011;51427;-27.442;153.014;2023-01-10T06:30:39;4.30;;;1.20;;
64915;SDS011;51427;-27.442;153.014;2023-01-10T06:33:08;5.28;;;1.30;;
64915;SDS011;51427;-27.442;153.014;2023-01-10T06:35:36;5.15;;;1.10;;
64915;SDS011;51427;-27.442;153.014;2023-01-10T06:38:04;5.25;;;0.73;;
64915;SDS011;51427;-27.442;153.014;2023-01-10T06:40:31;4.20;;;1.27;;
64915;SDS011;51427;-27.442;153.014;2023-01-10T06:42:58;3.95;;;1.08;;
64915;SDS011;51427;-27.442;153.014;2023-01-10T06:45:25;4.47;;;1.10;;
64915;SDS011;51427;-27.442;153.014;2023-01-10T06:47:53;5.28;;;1.20;;
64915;SDS011;51427;-27.442;153.014;2023-01-10T06:50:20;3.80;;;0.85;;
64915;SDS011;51427;-27.442;153.014;2023-01-10T06:52:57;11.70;;;1.67;;
64915;SDS011;51427;-27.442;153.014;2023-01-10T06:55:25;5.75;;;1.20;;
64915;SDS011;51427;-27.442;153.014;2023-01-10T06:57:54;5.28;;;1.38;;
64915;SDS011;51427;-27.442;153.014;2023-01-10T07:00:26;6.88;;;1.45;;
64915;SDS011;51427;-27.442;153.014;2023-01-10T07:02:57;7.15;;;1.38;;
64915;SDS011;51427;-27.442;153.014;2023-01-10T07:05:26;5.32;;;1.30;;
64915;SDS011;51427;-27.442;153.014;2023-01-10T07:07:55;4.63;;;1.63;;
64915;SDS011;51427;-27.442;153.014;2023-01-10T07:10:23;2.47;;;1.10;;
64915;SDS011;51427;-27.442;153.014;2023-01-10T07:12:50;4.10;;;1.23;;
64915;SDS011;51427;-27.442;153.014;2023-01-10T07:15:19;5.25;;;1.88;;
64915;SDS011;51427;-27.442;153.014;2023-01-10T07:17:46;7.00;;;1.30;;
64915;SDS011;51427;-27.442;153.014;2023-01-10T07:20:14;5.20;;;1.13;;
64915;SDS011;51427;-27.442;153.014;2023-01-10T07:22:41;3.85;;;1.20;;
64915;SDS011;51427;-27.442;153.014;2023-01-10T07:25:08;8.35;;;1.75;;
64915;SDS011;51427;-27.442;153.014;2023-01-10T07:27:36;5.93;;;1.08;;
64915;SDS011;51427;-27.442;153.014;2023-01-10T07:30:08;6.00;;;1.50;;
64915;SDS011;51427;-27.442;153.014;2023-01-10T07:32:36;7.47;;;1.95;;
64915;SDS011;51427;-27.442;153.014;2023-01-10T07:35:03;5.00;;;1.40;;
64915;SDS011;51427;-27.442;153.014;2023-01-10T07:37:31;5.55;;;1.17;;
64915;SDS011;51427;-27.442;153.014;2023-01-10T07:39:59;10.80;;;1.67;;
64915;SDS011;51427;-27.442;153.014;2023-01-10T07:42:26;8.25;;;1.50;;
64915;SDS011;51427;-27.442;153.014;2023-01-10T07:44:53;4.93;;;1.40;;
64915;SDS011;51427;-27.442;153.014;2023-01-10T07:47:20;7.20;;;1.55;;
64915;SDS011;51427;-27.442;153.014;2023-01-10T07:49:48;4.40;;;1.30;;
64915;SDS011;51427;-27.442;153.014;2023-01-10T07:52:15;6.47;;;1.40;;
64915;SDS011;51427;-27.442;153.014;2023-01-10T07:54:42;5.85;;;1.27;;
64915;SDS011;51427;-27.442;153.014;2023-01-10T07:57:09;4.95;;;1.42;;
64915;SDS011;51427;-27.442;153.014;2023-01-10T07:59:37;9.40;;;1.88;;
64915;SDS011;51427;-27.442;153.014;2023-01-10T08:02:04;6.93;;;2.22;;
64915;SDS011;51427;-27.442;153.014;2023-01-10T08:04:31;6.60;;;1.63;;
64915;SDS011;51427;-27.442;153.014;2023-01-10T08:06:59;9.95;;;1.92;;
64915;SDS011;51427;-27.442;153.014;2023-01-10T08:09:26;6.05;;;1.35;;
64915;SDS011;51427;-27.442;153.014;2023-01-10T08:11:53;7.63;;;1.83;;
64915;SDS011;51427;-27.442;153.014;2023-01-10T08:14:20;5.18;;;1.70;;
64915;SDS011;51427;-27.442;153.014;2023-01-10T08:16:48;6.20;;;1.67;;
64915;SDS011;51427;-27.442;153.014;2023-01-10T08:19:15;7.63;;;1.50;;
64915;SDS011;51427;-27.442;153.014;2023-01-10T08:21:43;5.10;;;1.30;;
64915;SDS011;51427;-27.442;153.014;2023-01-10T08:24:10;6.80;;;1.60;;
64915;SDS011;51427;-27.442;153.014;2023-01-10T08:26:37;5.65;;;1.23;;
64915;SDS011;51427;-27.442;153.014;2023-01-10T08:29:04;10.57;;;2.05;;
64915;SDS011;51427;-27.442;153.014;2023-01-10T08:31:32;7.55;;;1.55;;
64915;SDS011;51427;-27.442;153.014;2023-01-10T08:33:59;11.65;;;1.40;;
64915;SDS011;51427;-27.442;153.014;2023-01-10T08:36:26;5.20;;;1.20;;
64915;SDS011;51427;-27.442;153.014;2023-01-10T08:38:54;5.10;;;1.60;;
64915;SDS011;51427;-27.442;153.014;2023-01-10T08:41:21;9.65;;;1.90;;
64915;SDS011;51427;-27.442;153.014;2023-01-10T08:43:49;6.15;;;1.20;;
64915;SDS011;51427;-27.442;153.014;2023-01-10T08:46:17;3.67;;;1.20;;
64915;SDS011;51427;-27.442;153.014;2023-01-10T08:48:44;4.93;;;1.55;;
64915;SDS011;51427;-27.442;153.014;2023-01-10T08:51:13;6.57;;;1.67;;
64915;SDS011;51427;-27.442;153.014;2023-01-10T08:53:40;5.65;;;1.58;;
64915;SDS011;51427;-27.442;153.014;2023-01-10T08:56:07;8.65;;;1.65;;
64915;SDS011;51427;-27.442;153.014;2023-01-10T08:58:35;8.25;;;1.60;;
64915;SDS011;51427;-27.442;153.014;2023-01-10T09:01:03;7.13;;;1.33;;
64915;SDS011;51427;-27.442;153.014;2023-01-10T09:03:33;6.10;;;1.70;;
64915;SDS011;51427;-27.442;153.014;2023-01-10T09:06:01;11.82;;;1.92;;
64915;SDS011;51427;-27.442;153.014;2023-01-10T09:08:28;7.00;;;1.65;;
64915;SDS011;51427;-27.442;153.014;2023-01-10T09:10:59;8.75;;;1.60;;
64915;SDS011;51427;-27.442;153.014;2023-01-10T09:13:27;4.68;;;1.15;;
64915;SDS011;51427;-27.442;153.014;2023-01-10T09:15:55;4.65;;;1.40;;
64915;SDS011;51427;-27.442;153.014;2023-01-10T09:18:22;8.57;;;1.73;;
64915;SDS011;51427;-27.442;153.014;2023-01-10T09:20:50;5.93;;;1.88;;
64915;SDS011;51427;-27.442;153.014;2023-01-10T09:23:19;6.45;;;1.92;;
64915;SDS011;51427;-27.442;153.014;2023-01-10T09:25:48;6.20;;;1.67;;
64915;SDS011;51427;-27.442;153.014;2023-01-10T09:28:17;5.88;;;1.55;;
64915;SDS011;51427;-27.442;153.014;2023-01-10T09:30:46;11.70;;;2.10;;
64915;SDS011;51427;-27.442;153.014;2023-01-10T09:33:13;3.10;;;1.58;;
64915;SDS011;51427;-27.442;153.014;2023-01-10T09:35:41;4.32;;;1.20;;
64915;SDS011;51427;-27.442;153.014;2023-01-10T09:38:10;7.13;;;1.50;;
64915;SDS011;51427;-27.442;153.014;2023-01-10T09:40:49;9.07;;;1.90;;
64915;SDS011;51427;-27.442;153.014;2023-01-10T09:51:57;4.93;;;1.38;;
64915;SDS011;51427;-27.442;153.014;2023-01-10T09:54:27;9.13;;;1.50;;
64915;SDS011;51427;-27.442;153.014;2023-01-10T09:56:57;6.72;;;1.80;;
64915;SDS011;51427;-27.442;153.014;2023-01-10T09:59:36;5.20;;;1.40;;
64915;SDS011;51427;-27.442;153.014;2023-01-10T10:05:23;9.48;;;1.92;;
64915;SDS011;51427;-27.442;153.014;2023-01-10T10:07:56;5.18;;;1.30;;
64915;SDS011;51427;-27.442;153.014;2023-01-10T10:10:32;6.03;;;1.65;;
64915;SDS011;51427;-27.442;153.014;2023-01-10T10:18:43;10.00;;;1.98;;
64915;SDS011;51427;-27.442;153.014;2023-01-10T10:21:22;10.85;;;2.33;;
64915;SDS011;51427;-27.442;153.014;2023-01-10T10:23:58;6.30;;;1.23;;
64915;SDS011;51427;-27.442;153.014;2023-01-10T10:26:55;7.53;;;2.15;;
64915;SDS011;51427;-27.442;153.014;2023-01-10T10:29:29;8.48;;;1.98;;
64915;SDS011;51427;-27.442;153.014;2023-01-10T10:32:35;8.25;;;1.80;;
64915;SDS011;51427;-27.442;153.014;2023-01-10T10:37:51;7.65;;;1.83;;
64915;SDS011;51427;-27.442;153.014;2023-01-10T10:40:22;6.63;;;1.90;;
64915;SDS011;51427;-27.442;153.014;2023-01-10T10:42:54;3.92;;;1.58;;
64915;SDS011;51427;-27.442;153.014;2023-01-10T10:48:23;5.22;;;1.38;;
64915;SDS011;51427;-27.442;153.014;2023-01-10T10:54:26;8.07;;;1.98;;
64915;SDS011;51427;-27.442;153.014;2023-01-10T10:56:58;7.70;;;1.70;;
64915;SDS011;51427;-27.442;153.014;2023-01-10T10:59:26;8.15;;;1.77;;
64915;SDS011;51427;-27.442;153.014;2023-01-10T11:01:53;11.23;;;2.05;;
64915;SDS011;51427;-27.442;153.014;2023-01-10T11:04:21;7.18;;;2.63;;
64915;SDS011;51427;-27.442;153.014;2023-01-10T11:06:49;6.63;;;2.15;;
64915;SDS011;51427;-27.442;153.014;2023-01-10T11:09:19;9.95;;;1.98;;
64915;SDS011;51427;-27.442;153.014;2023-01-10T11:11:59;8.90;;;1.80;;
64915;SDS011;51427;-27.442;153.014;2023-01-10T11:14:44;7.55;;;2.35;;
64915;SDS011;51427;-27.442;153.014;2023-01-10T11:17:26;9.52;;;2.38;;
64915;SDS011;51427;-27.442;153.014;2023-01-10T11:20:03;10.93;;;2.42;;
64915;SDS011;51427;-27.442;153.014;2023-01-10T11:22:37;6.50;;;1.85;;
64915;SDS011;51427;-27.442;153.014;2023-01-10T11:25:13;8.00;;;1.48;;
64915;SDS011;51427;-27.442;153.014;2023-01-10T11:28:03;5.88;;;2.03;;
64915;SDS011;51427;-27.442;153.014;2023-01-10T11:30:32;6.93;;;2.00;;
64915;SDS011;51427;-27.442;153.014;2023-01-10T11:33:02;9.60;;;1.88;;
64915;SDS011;51427;-27.442;153.014;2023-01-10T11:35:33;5.35;;;1.90;;
64915;SDS011;51427;-27.442;153.014;2023-01-10T11:38:06;6.72;;;1.85;;
64915;SDS011;51427;-27.442;153.014;2023-01-10T11:41:05;6.75;;;1.80;;
64915;SDS011;51427;-27.442;153.014;2023-01-10T11:43:42;4.97;;;1.65;;
64915;SDS011;51427;-27.442;153.014;2023-01-10T11:46:21;5.55;;;1.95;;
64915;SDS011;51427;-27.442;153.014;2023-01-10T11:48:51;9.68;;;1.75;;
64915;SDS011;51427;-27.442;153.014;2023-01-10T11:51:34;6.72;;;1.73;;
64915;SDS011;51427;-27.442;153.014;2023-01-10T11:54:05;6.03;;;1.55;;
64915;SDS011;51427;-27.442;153.014;2023-01-10T12:00:06;5.65;;;1.48;;
64915;SDS011;51427;-27.442;153.014;2023-01-10T12:02:36;6.28;;;1.83;;
64915;SDS011;51427;-27.442;153.014;2023-01-10T12:05:28;5.88;;;1.38;;
64915;SDS011;51427;-27.442;153.014;2023-01-10T12:08:00;6.72;;;1.38;;
64915;SDS011;51427;-27.442;153.014;2023-01-10T12:10:33;9.48;;;1.60;;
64915;SDS011;51427;-27.442;153.014;2023-01-10T12:13:12;6.20;;;1.35;;
64915;SDS011;51427;-27.442;153.014;2023-01-10T12:15:42;5.43;;;1.63;;
64915;SDS011;51427;-27.442;153.014;2023-01-10T12:18:13;9.73;;;1.92;;
64915;SDS011;51427;-27.442;153.014;2023-01-10T12:20:48;7.90;;;1.90;;
64915;SDS011;51427;-27.442;153.014;2023-01-10T12:23:29;5.82;;;1.60;;
64915;SDS011;51427;-27.442;153.014;2023-01-10T12:26:00;6.35;;;2.00;;
64915;SDS011;51427;-27.442;153.014;2023-01-10T12:28:28;5.88;;;1.52;;
64915;SDS011;51427;-27.442;153.014;2023-01-10T12:30:57;9.50;;;1.90;;
64915;SDS011;51427;-27.442;153.014;2023-01-10T12:33:26;7.65;;;1.95;;
64915;SDS011;51427;-27.442;153.014;2023-01-10T12:39:05;6.47;;;1.55;;
64915;SDS011;51427;-27.442;153.014;2023-01-10T12:44:36;6.18;;;1.58;;
64915;SDS011;51427;-27.442;153.014;2023-01-10T12:50:32;5.70;;;1.40;;
64915;SDS011;51427;-27.442;153.014;2023-01-10T12:57:59;5.28;;;1.90;;
64915;SDS011;51427;-27.442;153.014;2023-01-10T13:00:35;7.85;;;1.77;;
64915;SDS011;51427;-27.442;153.014;2023-01-10T13:03:09;5.05;;;1.75;;
64915;SDS011;51427;-27.442;153.014;2023-01-10T13:05:40;9.55;;;1.65;;
64915;SDS011;51427;-27.442;153.014;2023-01-10T13:08:11;5.72;;;1.38;;
64915;SDS011;51427;-27.442;153.014;2023-01-10T13:10:45;5.70;;;1.40;;
64915;SDS011;51427;-27.442;153.014;2023-01-10T13:13:17;9.77;;;1.67;;
64915;SDS011;51427;-27.442;153.014;2023-01-10T13:15:55;4.05;;;1.20;;
64915;SDS011;51427;-27.442;153.014;2023-01-10T13:18:27;4.72;;;1.55;;
64915;SDS011;51427;-27.442;153.014;2023-01-10T13:21:03;7.30;;;1.27;;
64915;SDS011;51427;-27.442;153.014;2023-01-10T13:23:47;4.45;;;1.27;;
64915;SDS011;51427;-27.442;153.014;2023-01-10T13:26:20;6.10;;;1.55;;
64915;SDS011;51427;-27.442;153.014;2023-01-10T13:29:05;5.03;;;1.50;;
64915;SDS011;51427;-27.442;153.014;2023-01-10T13:31:37;4.15;;;1.40;;
64915;SDS011;51427;-27.442;153.014;2023-01-10T13:34:09;5.57;;;1.10;;
64915;SDS011;51427;-27.442;153.014;2023-01-10T13:36:48;6.55;;;1.58;;
64915;SDS011;51427;-27.442;153.014;2023-01-10T13:39:33;4.15;;;1.63;;
64915;SDS011;51427;-27.442;153.014;2023-01-10T14:04:18;8.95;;;1.98;;
64915;SDS011;51427;-27.442;153.014;2023-01-10T14:06:51;5.13;;;1.13;;
64915;SDS011;51427;-27.442;153.014;2023-01-10T14:11:52;5.25;;;1.65;;
64915;SDS011;51427;-27.442;153.014;2023-01-10T14:14:24;5.63;;;1.58;;
64915;SDS011;51427;-27.442;153.014;2023-01-10T14:16:55;4.13;;;1.42;;
64915;SDS011;51427;-27.442;153.014;2023-01-10T14:19:44;4.18;;;1.30;;
64915;SDS011;51427;-27.442;153.014;2023-01-10T14:22:35;4.97;;;1.42;;
64915;SDS011;51427;-27.442;153.014;2023-01-10T14:25:03;4.93;;;1.73;;
64915;SDS011;51427;-27.442;153.014;2023-01-10T14:27:43;5.68;;;1.38;;
64915;SDS011;51427;-27.442;153.014;2023-01-10T14:30:32;5.35;;;1.63;;
64915;SDS011;51427;-27.442;153.014;2023-01-10T14:33:13;5.13;;;1.65;;
64915;SDS011;51427;-27.442;153.014;2023-01-10T14:35:45;3.90;;;1.25;;
64915;SDS011;51427;-27.442;153.014;2023-01-10T14:38:31;3.95;;;1.25;;
64915;SDS011;51427;-27.442;153.014;2023-01-10T14:41:07;2.88;;;1.10;;
64915;SDS011;51427;-27.442;153.014;2023-01-10T14:46:43;6.47;;;1.50;;
64915;SDS011;51427;-27.442;153.014;2023-01-10T14:51:54;7.63;;;1.98;;
64915;SDS011;51427;-27.442;153.014;2023-01-10T14:54:38;6.60;;;1.27;;
64915;SDS011;51427;-27.442;153.014;2023-01-10T14:57:16;7.20;;;1.65;;
64915;SDS011;51427;-27.442;153.014;2023-01-10T14:59:45;5.50;;;1.40;;
64915;SDS011;51427;-27.442;153.014;2023-01-10T15:02:21;6.13;;;1.30;;
64915;SDS011;51427;-27.442;153.014;2023-01-10T15:04:54;3.88;;;1.30;;
64915;SDS011;51427;-27.442;153.014;2023-01-10T15:07:22;6.07;;;1.30;;
64915;SDS011;51427;-27.442;153.014;2023-01-10T15:09:55;10.40;;;2.22;;
64915;SDS011;51427;-27.442;153.014;2023-01-10T15:12:28;4.75;;;1.40;;
64915;SDS011;51427;-27.442;153.014;2023-01-10T15:15:11;3.67;;;1.08;;
64915;SDS011;51427;-27.442;153.014;2023-01-10T15:17:41;4.78;;;1.50;;
64915;SDS011;51427;-27.442;153.014;2023-01-10T15:20:13;4.68;;;0.95;;
64915;SDS011;51427;-27.442;153.014;2023-01-10T15:22:42;4.35;;;1.25;;
64915;SDS011;51427;-27.442;153.014;2023-01-10T15:27:48;5.03;;;1.48;;
64915;SDS011;51427;-27.442;153.014;2023-01-10T15:30:23;3.45;;;1.27;;
64915;SDS011;51427;-27.442;153.014;2023-01-10T15:32:53;4.82;;;1.55;;
64915;SDS011;51427;-27.442;153.014;2023-01-10T15:35:24;3.55;;;1.45;;
64915;SDS011;51427;-27.442;153.014;2023-01-10T15:37:55;5.63;;;1.33;;
64915;SDS011;51427;-27.442;153.014;2023-01-10T15:40:28;4.93;;;1.20;;
64915;SDS011;51427;-27.442;153.014;2023-01-10T15:45:44;3.95;;;1.35;;
64915;SDS011;51427;-27.442;153.014;2023-01-10T15:53:51;4.65;;;1.25;;
64915;SDS011;51427;-27.442;153.014;2023-01-10T15:56:23;6.15;;;1.63;;
64915;SDS011;51427;-27.442;153.014;2023-01-10T15:59:02;2.35;;;1.40;;
64915;SDS011;51427;-27.442;153.014;2023-01-10T16:04:54;3.78;;;1.38;;
64915;SDS011;51427;-27.442;153.014;2023-01-10T16:07:33;5.43;;;1.40;;
64915;SDS011;51427;-27.442;153.014;2023-01-10T16:12:45;6.88;;;1.85;;
64915;SDS011;51427;-27.442;153.014;2023-01-10T16:15:56;4.53;;;1.25;;
64915;SDS011;51427;-27.442;153.014;2023-01-10T16:21:19;6.75;;;1.50;;
64915;SDS011;51427;-27.442;153.014;2023-01-10T16:23:54;4.88;;;1.20;;
64915;SDS011;51427;-27.442;153.014;2023-01-10T16:26:21;5.40;;;1.58;;
64915;SDS011;51427;-27.442;153.014;2023-01-10T16:28:53;4.50;;;1.58;;
64915;SDS011;51427;-27.442;153.014;2023-01-10T16:31:21;7.85;;;2.08;;
64915;SDS011;51427;-27.442;153.014;2023-01-10T16:33:48;4.68;;;1.55;;
64915;SDS011;51427;-27.442;153.014;2023-01-10T16:36:24;4.30;;;1.52;;
64915;SDS011;51427;-27.442;153.014;2023-01-10T16:38:52;2.80;;;1.40;;
64915;SDS011;51427;-27.442;153.014;2023-01-10T16:41:21;7.05;;;1.65;;
64915;SDS011;51427;-27.442;153.014;2023-01-10T16:44:06;4.17;;;1.60;;
64915;SDS011;51427;-27.442;153.014;2023-01-10T16:46:34;5.30;;;1.85;;
64915;SDS011;51427;-27.442;153.014;2023-01-10T16:49:01;6.03;;;1.58;;
64915;SDS011;51427;-27.442;153.014;2023-01-10T16:51:31;7.38;;;1.77;;
64915;SDS011;51427;-27.442;153.014;2023-01-10T16:53:58;5.53;;;1.88;;